sensor_id;sensor_type;location;lat;lon;timestamp;temperature;humidity
32865;DHT22;19219;44.500;11.188;2023-03-13T00:02:00;6.70;99.90
32865;DHT22;19219;44.500;11.188;2023-03-13T00:04:25;6.70;99.90
32865;DHT22;19219;44.500;11.188;2023-03-13T00:06:51;6.70;99.90
32865;DHT22;19219;44.500;11.188;2023-03-13T00:09:17;6.70;99.90
32865;DHT22;19219;44.500;11.188;2023-03-13T00:11:44;6.60;99.90
32865;DHT22;19219;44.500;11.188;2023-03-13T00:14:10;6.70;99.90
32865;DHT22;19219;44.500;11.188;2023-03-13T00:16:36;6.70;99.90
32865;DHT22;19219;44.500;11.188;2023-03-13T00:19:06;6.60;99.90
32865;DHT22;19219;44.500;11.188;2023-03-13T00:21:33;6.60;99.90
32865;DHT22;19219;44.500;11.188;2023-03-13T00:23:59;6.50;99.90
32865;DHT22;19219;44.500;11.188;2023-03-13T00:26:26;6.50;99.90
32865;DHT22;19219;44.500;11.188;2023-03-13T00:28:52;6.40;99.90
32865;DHT22;19219;44.500;11.188;2023-03-13T00:31:21;6.30;99.90
32865;DHT22;19219;44.500;11.188;2023-03-13T00:33:48;6.20;99.90
32865;DHT22;19219;44.500;11.188;2023-03-13T00:36:22;6.30;99.90
32865;DHT22;19219;44.500;11.188;2023-03-13T00:38:49;6.30;99.90
32865;DHT22;19219;44.500;11.188;2023-03-13T00:41:17;6.30;99.90
32865;DHT22;19219;44.500;11.188;2023-03-13T00:43:44;6.40;99.90
32865;DHT22;19219;44.500;11.188;2023-03-13T00:46:10;6.30;99.90
32865;DHT22;19219;44.500;11.188;2023-03-13T00:48:37;6.30;99.90
32865;DHT22;19219;44.500;11.188;2023-03-13T00:51:04;6.40;99.90
32865;DHT22;19219;44.500;11.188;2023-03-13T00:53:30;6.40;99.90
32865;DHT22;19219;44.500;11.188;2023-03-13T00:58:27;6.50;99.90
32865;DHT22;19219;44.500;11.188;2023-03-13T01:00:54;6.50;99.90
32865;DHT22;19219;44.500;11.188;2023-03-13T01:03:21;6.40;99.90
32865;DHT22;19219;44.500;11.188;2023-03-13T01:06:00;6.40;99.90
32865;DHT22;19219;44.500;11.188;2023-03-13T01:08:43;6.40;99.90
32865;DHT22;19219;44.500;11.188;2023-03-13T01:11:12;6.40;99.90
32865;DHT22;19219;44.500;11.188;2023-03-13T01:13:38;6.30;99.90
32865;DHT22;19219;44.500;11.188;2023-03-13T01:16:10;6.30;99.90
32865;DHT22;19219;44.500;11.188;2023-03-13T01:18:38;6.20;99.90
32865;DHT22;19219;44.500;11.188;2023-03-13T01:21:05;6.10;99.90
32865;DHT22;19219;44.500;11.188;2023-03-13T01:23:30;6.10;99.90
32865;DHT22;19219;44.500;11.188;2023-03-13T01:25:56;6.10;99.90
32865;DHT22;19219;44.500;11.188;2023-03-13T01:28:24;6.10;99.90
32865;DHT22;19219;44.500;11.188;2023-03-13T01:30:50;6.00;99.90
32865;DHT22;19219;44.500;11.188;2023-03-13T01:33:16;5.90;99.90
32865;DHT22;19219;44.500;11.188;2023-03-13T01:35:41;5.90;99.90
32865;DHT22;19219;44.500;11.188;2023-03-13T01:38:07;5.90;99.90
32865;DHT22;19219;44.500;11.188;2023-03-13T01:40:47;5.90;99.90
32865;DHT22;19219;44.500;11.188;2023-03-13T01:43:33;5.90;99.90
32865;DHT22;19219;44.500;11.188;2023-03-13T01:46:19;5.90;99.90
32865;DHT22;19219;44.500;11.188;2023-03-13T01:48:47;6.00;99.90
32865;DHT22;19219;44.500;11.188;2023-03-13T01:54:24;6.10;99.90
32865;DHT22;19219;44.500;11.188;2023-03-13T01:57:12;6.20;99.90
32865;DHT22;19219;44.500;11.188;2023-03-13T01:59:45;6.30;99.90
32865;DHT22;19219;44.500;11.188;2023-03-13T02:02:12;6.30;99.90
32865;DHT22;19219;44.500;11.188;2023-03-13T02:04:45;6.30;99.90
32865;DHT22;19219;44.500;11.188;2023-03-13T02:07:15;6.30;99.90
32865;DHT22;19219;44.500;11.188;2023-03-13T02:09:43;6.30;99.90
32865;DHT22;19219;44.500;11.188;2023-03-13T02:12:28;6.30;99.90
32865;DHT22;19219;44.500;11.188;2023-03-13T02:14:56;6.30;99.90
32865;DHT22;19219;44.500;11.188;2023-03-13T02:17:23;6.30;99.90
32865;DHT22;19219;44.500;11.188;2023-03-13T02:19:51;6.20;99.90
32865;DHT22;19219;44.500;11.188;2023-03-13T02:24:51;6.20;99.90
32865;DHT22;19219;44.500;11.188;2023-03-13T02:27:18;6.30;99.90
32865;DHT22;19219;44.500;11.188;2023-03-13T02:29:44;6.30;99.90
32865;DHT22;19219;44.500;11.188;2023-03-13T02:32:30;6.30;99.90
32865;DHT22;19219;44.500;11.188;2023-03-13T02:35:01;6.40;99.90
32865;DHT22;19219;44.500;11.188;2023-03-13T02:37:29;6.40;99.90
32865;DHT22;19219;44.500;11.188;2023-03-13T02:39:59;6.50;99.90
32865;DHT22;19219;44.500;11.188;2023-03-13T02:42:26;6.50;99.90
32865;DHT22;19219;44.500;11.188;2023-03-13T02:44:52;6.50;99.90
32865;DHT22;19219;44.500;11.188;2023-03-13T02:47:22;6.50;99.90
32865;DHT22;19219;44.500;11.188;2023-03-13T02:49:48;6.50;99.90
32865;DHT22;19219;44.500;11.188;2023-03-13T02:52:25;6.60;99.90
32865;DHT22;19219;44.500;11.188;2023-03-13T02:55:00;6.70;99.90
32865;DHT22;19219;44.500;11.188;2023-03-13T02:57:27;6.80;99.90
32865;DHT22;19219;44.500;11.188;2023-03-13T02:59:53;6.90;99.90
32865;DHT22;19219;44.500;11.188;2023-03-13T03:02:19;7.10;99.90
32865;DHT22;19219;44.500;11.188;2023-03-13T03:04:45;7.20;99.90
32865;DHT22;19219;44.500;11.188;2023-03-13T03:07:10;7.30;99.90
32865;DHT22;19219;44.500;11.188;2023-03-13T03:09:36;7.40;99.90
32865;DHT22;19219;44.500;11.188;2023-03-13T03:12:02;7.40;99.90
32865;DHT22;19219;44.500;11.188;2023-03-13T03:14:28;7.40;99.90
32865;DHT22;19219;44.500;11.188;2023-03-13T03:16:53;7.40;99.90
32865;DHT22;19219;44.500;11.188;2023-03-13T03:19:19;7.30;99.90
32865;DHT22;19219;44.500;11.188;2023-03-13T03:21:44;7.30;99.90
32865;DHT22;19219;44.500;11.188;2023-03-13T03:24:10;7.30;99.90
32865;DHT22;19219;44.500;11.188;2023-03-13T03:26:36;7.30;99.90
32865;DHT22;19219;44.500;11.188;2023-03-13T03:29:02;7.30;99.90
32865;DHT22;19219;44.500;11.188;2023-03-13T03:31:29;7.30;99.90
32865;DHT22;19219;44.500;11.188;2023-03-13T03:33:56;7.40;99.90
32865;DHT22;19219;44.500;11.188;2023-03-13T03:36:22;7.40;99.90
32865;DHT22;19219;44.500;11.188;2023-03-13T03:38:49;7.40;99.90
32865;DHT22;19219;44.500;11.188;2023-03-13T03:41:15;7.50;99.90
32865;DHT22;19219;44.500;11.188;2023-03-13T03:43:44;7.40;99.90
32865;DHT22;19219;44.500;11.188;2023-03-13T03:46:09;7.20;99.90
32865;DHT22;19219;44.500;11.188;2023-03-13T03:48:36;7.20;99.90
32865;DHT22;19219;44.500;11.188;2023-03-13T03:51:02;7.20;99.90
32865;DHT22;19219;44.500;11.188;2023-03-13T03:53:28;7.30;99.90
32865;DHT22;19219;44.500;11.188;2023-03-13T03:55:53;7.30;99.90
32865;DHT22;19219;44.500;11.188;2023-03-13T03:58:19;7.30;99.90
32865;DHT22;19219;44.500;11.188;2023-03-13T04:00:46;7.20;99.90
32865;DHT22;19219;44.500;11.188;2023-03-13T04:03:13;7.20;99.90
32865;DHT22;19219;44.500;11.188;2023-03-13T04:05:39;7.20;99.90
32865;DHT22;19219;44.500;11.188;2023-03-13T04:08:06;7.20;99.90
32865;DHT22;19219;44.500;11.188;2023-03-13T04:10:31;7.30;99.90
32865;DHT22;19219;44.500;11.188;2023-03-13T04:12:58;7.30;99.90
32865;DHT22;19219;44.500;11.188;2023-03-13T04:15:24;7.30;99.90
32865;DHT22;19219;44.500;11.188;2023-03-13T04:17:49;7.30;99.90
32865;DHT22;19219;44.500;11.188;2023-03-13T04:20:15;7.40;99.90
32865;DHT22;19219;44.500;11.188;2023-03-13T04:22:41;7.40;99.90
32865;DHT22;19219;44.500;11.188;2023-03-13T04:25:08;7.50;99.90
32865;DHT22;19219;44.500;11.188;2023-03-13T04:27:34;7.50;99.90
32865;DHT22;19219;44.500;11.188;2023-03-13T04:30:00;7.50;99.90
32865;DHT22;19219;44.500;11.188;2023-03-13T04:32:26;7.50;99.90
32865;DHT22;19219;44.500;11.188;2023-03-13T04:34:51;7.50;99.90
32865;DHT22;19219;44.500;11.188;2023-03-13T04:37:17;7.50;99.90
32865;DHT22;19219;44.500;11.188;2023-03-13T04:39:43;7.50;99.90
32865;DHT22;19219;44.500;11.188;2023-03-13T04:42:10;7.40;99.90
32865;DHT22;19219;44.500;11.188;2023-03-13T04:44:36;7.30;99.90
32865;DHT22;19219;44.500;11.188;2023-03-13T04:47:02;7.20;99.90
32865;DHT22;19219;44.500;11.188;2023-03-13T04:49:27;7.20;99.90
32865;DHT22;19219;44.500;11.188;2023-03-13T04:51:53;7.20;99.90
32865;DHT22;19219;44.500;11.188;2023-03-13T04:54:19;7.20;99.90
32865;DHT22;19219;44.500;11.188;2023-03-13T04:56:45;7.10;99.90
32865;DHT22;19219;44.500;11.188;2023-03-13T04:59:11;7.00;99.90
32865;DHT22;19219;44.500;11.188;2023-03-13T05:01:37;6.80;99.90
32865;DHT22;19219;44.500;11.188;2023-03-13T05:04:04;6.70;99.90
32865;DHT22;19219;44.500;11.188;2023-03-13T05:06:29;6.70;99.90
32865;DHT22;19219;44.500;11.188;2023-03-13T05:08:55;6.60;99.90
32865;DHT22;19219;44.500;11.188;2023-03-13T05:11:22;6.60;99.90
32865;DHT22;19219;44.500;11.188;2023-03-13T05:13:47;6.40;99.90
32865;DHT22;19219;44.500;11.188;2023-03-13T05:16:13;6.40;99.90
32865;DHT22;19219;44.500;11.188;2023-03-13T05:18:39;6.40;99.90
32865;DHT22;19219;44.500;11.188;2023-03-13T05:21:05;6.40;99.90
32865;DHT22;19219;44.500;11.188;2023-03-13T05:23:31;6.50;99.90
32865;DHT22;19219;44.500;11.188;2023-03-13T05:25:58;6.60;99.90
32865;DHT22;19219;44.500;11.188;2023-03-13T05:28:23;6.70;99.90
32865;DHT22;19219;44.500;11.188;2023-03-13T05:30:49;6.80;99.90
32865;DHT22;19219;44.500;11.188;2023-03-13T05:33:15;6.70;99.90
32865;DHT22;19219;44.500;11.188;2023-03-13T05:35:41;6.80;99.90
32865;DHT22;19219;44.500;11.188;2023-03-13T05:38:08;6.70;99.90
32865;DHT22;19219;44.500;11.188;2023-03-13T05:40:33;6.80;99.90
32865;DHT22;19219;44.500;11.188;2023-03-13T05:43:00;6.80;99.90
32865;DHT22;19219;44.500;11.188;2023-03-13T05:45:26;6.80;99.90
32865;DHT22;19219;44.500;11.188;2023-03-13T05:47:52;6.80;99.90
32865;DHT22;19219;44.500;11.188;2023-03-13T05:50:17;6.90;99.90
32865;DHT22;19219;44.500;11.188;2023-03-13T05:52:43;7.00;99.90
32865;DHT22;19219;44.500;11.188;2023-03-13T05:55:09;7.10;99.90
32865;DHT22;19219;44.500;11.188;2023-03-13T05:57:34;7.20;99.90
32865;DHT22;19219;44.500;11.188;2023-03-13T06:00:00;7.20;99.90
32865;DHT22;19219;44.500;11.188;2023-03-13T06:02:26;7.20;99.90
32865;DHT22;19219;44.500;11.188;2023-03-13T06:04:52;7.30;99.90
32865;DHT22;19219;44.500;11.188;2023-03-13T06:07:18;7.40;99.90
32865;DHT22;19219;44.500;11.188;2023-03-13T06:09:43;7.50;99.90
32865;DHT22;19219;44.500;11.188;2023-03-13T06:12:10;7.60;99.90
32865;DHT22;19219;44.500;11.188;2023-03-13T06:14:36;7.60;99.90
32865;DHT22;19219;44.500;11.188;2023-03-13T06:17:06;7.70;99.90
32865;DHT22;19219;44.500;11.188;2023-03-13T06:19:32;7.80;99.90
32865;DHT22;19219;44.500;11.188;2023-03-13T06:21:58;7.70;99.90
32865;DHT22;19219;44.500;11.188;2023-03-13T06:24:24;7.70;99.90
32865;DHT22;19219;44.500;11.188;2023-03-13T06:26:50;7.70;99.90
32865;DHT22;19219;44.500;11.188;2023-03-13T06:29:17;7.80;99.90
32865;DHT22;19219;44.500;11.188;2023-03-13T06:31:43;7.80;99.90
32865;DHT22;19219;44.500;11.188;2023-03-13T06:34:12;7.80;99.90
32865;DHT22;19219;44.500;11.188;2023-03-13T06:36:40;7.90;99.90
32865;DHT22;19219;44.500;11.188;2023-03-13T06:39:05;8.00;99.90
32865;DHT22;19219;44.500;11.188;2023-03-13T06:41:37;8.20;99.90
32865;DHT22;19219;44.500;11.188;2023-03-13T06:44:07;8.20;99.90
32865;DHT22;19219;44.500;11.188;2023-03-13T06:46:35;8.30;99.90
32865;DHT22;19219;44.500;11.188;2023-03-13T06:49:03;8.30;99.90
32865;DHT22;19219;44.500;11.188;2023-03-13T06:51:31;8.30;99.90
32865;DHT22;19219;44.500;11.188;2023-03-13T06:53:56;8.30;99.90
32865;DHT22;19219;44.500;11.188;2023-03-13T06:56:22;8.40;99.90
32865;DHT22;19219;44.500;11.188;2023-03-13T06:58:49;8.50;99.90
32865;DHT22;19219;44.500;11.188;2023-03-13T07:01:16;8.70;99.90
32865;DHT22;19219;44.500;11.188;2023-03-13T07:03:42;8.80;99.90
32865;DHT22;19219;44.500;11.188;2023-03-13T07:06:11;8.90;99.90
32865;DHT22;19219;44.500;11.188;2023-03-13T07:08:37;9.00;99.90
32865;DHT22;19219;44.500;11.188;2023-03-13T07:11:09;9.20;99.90
32865;DHT22;19219;44.500;11.188;2023-03-13T07:13:35;9.20;99.90
32865;DHT22;19219;44.500;11.188;2023-03-13T07:16:04;9.30;99.90
32865;DHT22;19219;44.500;11.188;2023-03-13T07:18:31;9.40;99.90
32865;DHT22;19219;44.500;11.188;2023-03-13T07:20:58;9.50;99.90
32865;DHT22;19219;44.500;11.188;2023-03-13T07:23:25;9.60;99.90
32865;DHT22;19219;44.500;11.188;2023-03-13T07:25:56;10.00;99.90
32865;DHT22;19219;44.500;11.188;2023-03-13T07:28:24;10.40;99.90
32865;DHT22;19219;44.500;11.188;2023-03-13T07:30:50;11.60;99.90
32865;DHT22;19219;44.500;11.188;2023-03-13T07:33:16;12.70;99.90
32865;DHT22;19219;44.500;11.188;2023-03-13T07:35:50;13.80;99.90
32865;DHT22;19219;44.500;11.188;2023-03-13T07:38:17;14.70;99.90
32865;DHT22;19219;44.500;11.188;2023-03-13T07:40:51;14.60;99.90
32865;DHT22;19219;44.500;11.188;2023-03-13T07:43:17;14.60;99.90
32865;DHT22;19219;44.500;11.188;2023-03-13T07:45:55;14.40;99.90
32865;DHT22;19219;44.500;11.188;2023-03-13T07:48:21;14.50;99.90
32865;DHT22;19219;44.500;11.188;2023-03-13T07:50:47;14.50;99.90
32865;DHT22;19219;44.500;11.188;2023-03-13T07:53:13;14.40;99.90
32865;DHT22;19219;44.500;11.188;2023-03-13T07:56:00;14.50;99.90
32865;DHT22;19219;44.500;11.188;2023-03-13T07:58:27;15.00;99.90
32865;DHT22;19219;44.500;11.188;2023-03-13T08:00:53;15.70;99.90
32865;DHT22;19219;44.500;11.188;2023-03-13T08:03:19;15.70;99.90
32865;DHT22;19219;44.500;11.188;2023-03-13T08:05:45;16.10;99.90
32865;DHT22;19219;44.500;11.188;2023-03-13T08:08:10;16.40;99.90
32865;DHT22;19219;44.500;11.188;2023-03-13T08:10:36;17.30;99.90
32865;DHT22;19219;44.500;11.188;2023-03-13T08:13:02;17.70;99.90
32865;DHT22;19219;44.500;11.188;2023-03-13T08:15:28;18.30;99.90
32865;DHT22;19219;44.500;11.188;2023-03-13T08:17:54;18.70;99.90
32865;DHT22;19219;44.500;11.188;2023-03-13T08:20:21;19.20;99.90
32865;DHT22;19219;44.500;11.188;2023-03-13T08:22:46;19.30;99.90
32865;DHT22;19219;44.500;11.188;2023-03-13T08:25:15;18.80;99.90
32865;DHT22;19219;44.500;11.188;2023-03-13T08:27:41;18.60;99.90
32865;DHT22;19219;44.500;11.188;2023-03-13T08:30:08;18.20;99.90
32865;DHT22;19219;44.500;11.188;2023-03-13T08:32:35;17.30;99.90
32865;DHT22;19219;44.500;11.188;2023-03-13T08:35:02;16.90;99.90
32865;DHT22;19219;44.500;11.188;2023-03-13T08:37:28;16.30;99.90
32865;DHT22;19219;44.500;11.188;2023-03-13T08:39:53;16.00;99.90
32865;DHT22;19219;44.500;11.188;2023-03-13T08:42:21;15.90;99.90
32865;DHT22;19219;44.500;11.188;2023-03-13T08:44:47;15.80;99.90
32865;DHT22;19219;44.500;11.188;2023-03-13T08:47:12;15.80;99.90
32865;DHT22;19219;44.500;11.188;2023-03-13T08:49:38;15.50;99.90
32865;DHT22;19219;44.500;11.188;2023-03-13T08:52:04;15.70;99.90
32865;DHT22;19219;44.500;11.188;2023-03-13T08:54:31;15.80;99.90
32865;DHT22;19219;44.500;11.188;2023-03-13T08:56:57;16.10;99.90
32865;DHT22;19219;44.500;11.188;2023-03-13T08:59:24;16.40;99.90
32865;DHT22;19219;44.500;11.188;2023-03-13T09:01:50;16.50;99.90
32865;DHT22;19219;44.500;11.188;2023-03-13T09:04:16;16.70;99.90
32865;DHT22;19219;44.500;11.188;2023-03-13T09:06:42;16.80;99.90
32865;DHT22;19219;44.500;11.188;2023-03-13T09:09:09;17.30;99.90
32865;DHT22;19219;44.500;11.188;2023-03-13T09:11:37;18.20;99.90
32865;DHT22;19219;44.500;11.188;2023-03-13T09:14:04;19.00;99.90
32865;DHT22;19219;44.500;11.188;2023-03-13T09:16:31;20.10;99.90
32865;DHT22;19219;44.500;11.188;2023-03-13T09:18:58;20.70;99.90
32865;DHT22;19219;44.500;11.188;2023-03-13T09:21:30;21.00;99.90
32865;DHT22;19219;44.500;11.188;2023-03-13T09:23:56;21.40;99.90
32865;DHT22;19219;44.500;11.188;2023-03-13T09:26:22;21.30;99.90
32865;DHT22;19219;44.500;11.188;2023-03-13T09:28:48;21.20;99.90
32865;DHT22;19219;44.500;11.188;2023-03-13T09:31:16;21.20;99.90
32865;DHT22;19219;44.500;11.188;2023-03-13T09:33:45;21.10;99.90
32865;DHT22;19219;44.500;11.188;2023-03-13T09:36:11;21.20;99.90
32865;DHT22;19219;44.500;11.188;2023-03-13T09:38:37;20.90;99.90
32865;DHT22;19219;44.500;11.188;2023-03-13T09:48:59;19.40;99.90
32865;DHT22;19219;44.500;11.188;2023-03-13T09:51:27;19.40;99.90
32865;DHT22;19219;44.500;11.188;2023-03-13T09:56:47;18.90;99.90
32865;DHT22;19219;44.500;11.188;2023-03-13T09:59:31;18.70;99.90
32865;DHT22;19219;44.500;11.188;2023-03-13T10:02:03;18.90;99.90
32865;DHT22;19219;44.500;11.188;2023-03-13T10:04:42;18.80;99.90
32865;DHT22;19219;44.500;11.188;2023-03-13T10:07:10;18.70;99.90
32865;DHT22;19219;44.500;11.188;2023-03-13T10:09:36;18.50;99.90
32865;DHT22;19219;44.500;11.188;2023-03-13T10:12:16;18.60;99.90
32865;DHT22;19219;44.500;11.188;2023-03-13T10:17:36;18.90;99.90
32865;DHT22;19219;44.500;11.188;2023-03-13T10:20:26;18.90;99.90
32865;DHT22;19219;44.500;11.188;2023-03-13T10:23:04;19.20;99.90
32865;DHT22;19219;44.500;11.188;2023-03-13T10:25:36;19.20;99.90
32865;DHT22;19219;44.500;11.188;2023-03-13T10:28:10;19.10;99.90
32865;DHT22;19219;44.500;11.188;2023-03-13T10:30:37;19.10;99.90
32865;DHT22;19219;44.500;11.188;2023-03-13T10:35:41;19.10;99.90
32865;DHT22;19219;44.500;11.188;2023-03-13T10:38:12;19.20;99.90
32865;DHT22;19219;44.500;11.188;2023-03-13T10:40:56;19.10;99.90
32865;DHT22;19219;44.500;11.188;2023-03-13T10:43:25;18.90;99.90
32865;DHT22;19219;44.500;11.188;2023-03-13T10:45:53;18.70;99.90
32865;DHT22;19219;44.500;11.188;2023-03-13T10:48:20;18.50;99.90
32865;DHT22;19219;44.500;11.188;2023-03-13T10:50:48;18.50;99.90
32865;DHT22;19219;44.500;11.188;2023-03-13T10:55:59;19.00;99.90
32865;DHT22;19219;44.500;11.188;2023-03-13T10:58:48;19.10;99.90
32865;DHT22;19219;44.500;11.188;2023-03-13T11:03:42;19.10;99.90
32865;DHT22;19219;44.500;11.188;2023-03-13T11:06:23;18.80;99.90
32865;DHT22;19219;44.500;11.188;2023-03-13T11:11:46;18.30;99.90
32865;DHT22;19219;44.500;11.188;2023-03-13T11:14:18;18.40;99.90
32865;DHT22;19219;44.500;11.188;2023-03-13T11:24:48;18.30;99.90
32865;DHT22;19219;44.500;11.188;2023-03-13T11:27:27;18.50;99.90
32865;DHT22;19219;44.500;11.188;2023-03-13T11:30:07;18.40;99.90
32865;DHT22;19219;44.500;11.188;2023-03-13T11:32:55;18.30;99.90
32865;DHT22;19219;44.500;11.188;2023-03-13T11:35:48;18.40;99.90
32865;DHT22;19219;44.500;11.188;2023-03-13T11:38:26;18.40;99.90
32865;DHT22;19219;44.500;11.188;2023-03-13T11:41:10;18.40;99.90
32865;DHT22;19219;44.500;11.188;2023-03-13T11:44:11;18.50;99.90
32865;DHT22;19219;44.500;11.188;2023-03-13T11:55:28;18.80;99.90
32865;DHT22;19219;44.500;11.188;2023-03-13T12:00:35;18.50;99.90
32865;DHT22;19219;44.500;11.188;2023-03-13T12:03:18;18.20;99.90
32865;DHT22;19219;44.500;11.188;2023-03-13T12:05:54;17.80;99.90
32865;DHT22;19219;44.500;11.188;2023-03-13T12:11:08;17.60;99.90
32865;DHT22;19219;44.500;11.188;2023-03-13T12:13:40;17.60;99.90
32865;DHT22;19219;44.500;11.188;2023-03-13T12:16:20;17.80;99.90
32865;DHT22;19219;44.500;11.188;2023-03-13T12:18:48;17.70;99.90
32865;DHT22;19219;44.500;11.188;2023-03-13T12:21:22;17.70;99.90
32865;DHT22;19219;44.500;11.188;2023-03-13T12:26:40;17.90;99.90
32865;DHT22;19219;44.500;11.188;2023-03-13T12:34:29;18.00;99.90
32865;DHT22;19219;44.500;11.188;2023-03-13T12:37:06;18.00;99.90
32865;DHT22;19219;44.500;11.188;2023-03-13T12:39:47;17.80;99.90
32865;DHT22;19219;44.500;11.188;2023-03-13T12:44:49;17.40;99.90
32865;DHT22;19219;44.500;11.188;2023-03-13T12:47:30;17.30;99.90
32865;DHT22;19219;44.500;11.188;2023-03-13T12:50:12;17.40;99.90
32865;DHT22;19219;44.500;11.188;2023-03-13T12:58:36;17.70;99.90
32865;DHT22;19219;44.500;11.188;2023-03-13T13:01:06;18.10;99.90
32865;DHT22;19219;44.500;11.188;2023-03-13T13:06:15;18.40;99.90
32865;DHT22;19219;44.500;11.188;2023-03-13T13:08:46;18.20;99.90
32865;DHT22;19219;44.500;11.188;2023-03-13T13:24:54;17.50;99.90
32865;DHT22;19219;44.500;11.188;2023-03-13T13:32:46;18.00;99.90
32865;DHT22;19219;44.500;11.188;2023-03-13T13:35:27;18.10;99.90
32865;DHT22;19219;44.500;11.188;2023-03-13T13:44:13;18.60;99.90
32865;DHT22;19219;44.500;11.188;2023-03-13T13:46:32;18.40;99.90
32865;DHT22;19219;44.500;11.188;2023-03-13T13:51:32;18.30;99.90
32865;DHT22;19219;44.500;11.188;2023-03-13T13:54:51;18.30;99.90
32865;DHT22;19219;44.500;11.188;2023-03-13T13:56:57;18.20;99.90
32865;DHT22;19219;44.500;11.188;2023-03-13T13:59:35;18.00;99.90
32865;DHT22;19219;44.500;11.188;2023-03-13T14:02:16;17.80;99.90
32865;DHT22;19219;44.500;11.188;2023-03-13T15:13:47;18.80;99.90
32865;DHT22;19219;44.500;11.188;2023-03-13T15:16:17;18.70;99.90
32865;DHT22;19219;44.500;11.188;2023-03-13T15:18:45;18.60;99.90
32865;DHT22;19219;44.500;11.188;2023-03-13T15:23:45;18.30;99.90
32865;DHT22;19219;44.500;11.188;2023-03-13T15:26:12;18.40;99.90
32865;DHT22;19219;44.500;11.188;2023-03-13T15:28:38;18.30;99.90
32865;DHT22;19219;44.500;11.188;2023-03-13T15:31:04;18.40;99.90
32865;DHT22;19219;44.500;11.188;2023-03-13T15:33:30;18.40;99.90
32865;DHT22;19219;44.500;11.188;2023-03-13T15:35:56;18.40;99.90
32865;DHT22;19219;44.500;11.188;2023-03-13T15:38:26;18.50;99.90
32865;DHT22;19219;44.500;11.188;2023-03-13T15:40:52;18.60;99.90
32865;DHT22;19219;44.500;11.188;2023-03-13T15:43:19;18.60;99.90
32865;DHT22;19219;44.500;11.188;2023-03-13T15:45:45;18.60;99.90
32865;DHT22;19219;44.500;11.188;2023-03-13T15:50:42;18.50;99.90
32865;DHT22;19219;44.500;11.188;2023-03-13T15:53:35;18.40;99.90
32865;DHT22;19219;44.500;11.188;2023-03-13T15:56:02;18.40;99.90
32865;DHT22;19219;44.500;11.188;2023-03-13T15:58:29;18.20;99.90
32865;DHT22;19219;44.500;11.188;2023-03-13T16:00:55;18.00;99.90
32865;DHT22;19219;44.500;11.188;2023-03-13T16:03:23;17.90;99.90
32865;DHT22;19219;44.500;11.188;2023-03-13T16:05:51;17.70;99.90
32865;DHT22;19219;44.500;11.188;2023-03-13T16:08:19;17.70;99.90
32865;DHT22;19219;44.500;11.188;2023-03-13T16:10:45;17.60;99.90
32865;DHT22;19219;44.500;11.188;2023-03-13T16:13:11;17.60;99.90
32865;DHT22;19219;44.500;11.188;2023-03-13T16:15:37;17.50;99.90
32865;DHT22;19219;44.500;11.188;2023-03-13T16:18:04;17.40;99.90
32865;DHT22;19219;44.500;11.188;2023-03-13T16:20:31;17.40;99.90
32865;DHT22;19219;44.500;11.188;2023-03-13T16:22:57;17.30;99.90
32865;DHT22;19219;44.500;11.188;2023-03-13T16:25:24;17.30;99.90
32865;DHT22;19219;44.500;11.188;2023-03-13T16:27:50;17.20;99.90
32865;DHT22;19219;44.500;11.188;2023-03-13T16:30:21;17.10;99.90
32865;DHT22;19219;44.500;11.188;2023-03-13T16:32:47;17.10;99.90
32865;DHT22;19219;44.500;11.188;2023-03-13T16:35:12;17.10;99.90
32865;DHT22;19219;44.500;11.188;2023-03-13T16:37:38;17.10;99.90
32865;DHT22;19219;44.500;11.188;2023-03-13T16:42:39;17.10;99.90
32865;DHT22;19219;44.500;11.188;2023-03-13T16:45:05;17.00;99.90
32865;DHT22;19219;44.500;11.188;2023-03-13T16:47:31;17.00;99.90
32865;DHT22;19219;44.500;11.188;2023-03-13T16:49:57;16.90;99.90
32865;DHT22;19219;44.500;11.188;2023-03-13T16:52:22;16.80;99.90
32865;DHT22;19219;44.500;11.188;2023-03-13T16:54:48;16.60;99.90
32865;DHT22;19219;44.500;11.188;2023-03-13T16:57:21;16.40;99.90
32865;DHT22;19219;44.500;11.188;2023-03-13T16:59:48;16.30;99.90
32865;DHT22;19219;44.500;11.188;2023-03-13T17:02:18;16.20;99.90
32865;DHT22;19219;44.500;11.188;2023-03-13T17:04:45;16.10;99.90
32865;DHT22;19219;44.500;11.188;2023-03-13T17:07:17;16.00;99.90
32865;DHT22;19219;44.500;11.188;2023-03-13T17:09:43;15.90;99.90
32865;DHT22;19219;44.500;11.188;2023-03-13T17:12:09;15.70;99.90
32865;DHT22;19219;44.500;11.188;2023-03-13T17:14:35;15.50;99.90
32865;DHT22;19219;44.500;11.188;2023-03-13T17:17:01;15.40;99.90
32865;DHT22;19219;44.500;11.188;2023-03-13T17:19:27;15.20;99.90
32865;DHT22;19219;44.500;11.188;2023-03-13T17:21:55;15.00;99.90
32865;DHT22;19219;44.500;11.188;2023-03-13T17:24:20;14.80;99.90
32865;DHT22;19219;44.500;11.188;2023-03-13T17:26:46;14.70;99.90
32865;DHT22;19219;44.500;11.188;2023-03-13T17:29:15;14.70;99.90
32865;DHT22;19219;44.500;11.188;2023-03-13T17:31:42;14.60;99.90
32865;DHT22;19219;44.500;11.188;2023-03-13T17:34:08;14.60;99.90
32865;DHT22;19219;44.500;11.188;2023-03-13T17:36:34;14.50;99.90
32865;DHT22;19219;44.500;11.188;2023-03-13T17:39:02;14.40;99.90
32865;DHT22;19219;44.500;11.188;2023-03-13T17:41:30;14.40;99.90
32865;DHT22;19219;44.500;11.188;2023-03-13T17:43:57;14.30;99.90
32865;DHT22;19219;44.500;11.188;2023-03-13T17:46:30;14.10;99.90
32865;DHT22;19219;44.500;11.188;2023-03-13T17:48:58;14.00;99.90
32865;DHT22;19219;44.500;11.188;2023-03-13T17:51:26;14.00;99.90
32865;DHT22;19219;44.500;11.188;2023-03-13T17:53:53;13.90;99.90
32865;DHT22;19219;44.500;11.188;2023-03-13T17:56:21;13.80;99.90
32865;DHT22;19219;44.500;11.188;2023-03-13T17:58:48;13.70;99.90
32865;DHT22;19219;44.500;11.188;2023-03-13T18:01:20;13.70;99.90
32865;DHT22;19219;44.500;11.188;2023-03-13T18:03:47;13.60;99.90
32865;DHT22;19219;44.500;11.188;2023-03-13T18:06:25;13.60;99.90
32865;DHT22;19219;44.500;11.188;2023-03-13T18:08:53;13.50;99.90
32865;DHT22;19219;44.500;11.188;2023-03-13T18:11:20;13.40;99.90
32865;DHT22;19219;44.500;11.188;2023-03-13T18:13:46;13.30;99.90
32865;DHT22;19219;44.500;11.188;2023-03-13T18:16:20;13.30;99.90
32865;DHT22;19219;44.500;11.188;2023-03-13T18:18:47;13.20;99.90
32865;DHT22;19219;44.500;11.188;2023-03-13T18:21:13;13.10;99.90
32865;DHT22;19219;44.500;11.188;2023-03-13T18:23:39;13.00;99.90
32865;DHT22;19219;44.500;11.188;2023-03-13T18:28:57;12.90;99.90
32865;DHT22;19219;44.500;11.188;2023-03-13T18:31:28;13.00;99.90
32865;DHT22;19219;44.500;11.188;2023-03-13T18:33:57;12.90;99.90